Time,TemperatureF,DewpointF,PressureIn,WindDirection,WindDirectionDegrees,WindSpeedMPH,WindSpeedGustMPH,Humidity,HourlyPrecipIn,Conditions,Clouds,dailyrainin,SolarRadiationWatts/m^2,SoftwareType,DateUTC
2013-10-28 00:01:00,69.2,64.8,30.04,ESE,109,0.0,0.0,86,0.00,,FEW040CU,0.00,0.00,VWS V14.00,2013-10-28 04:01:00,
2013-10-28 00:02:00,69.2,64.8,30.04,ESE,109,0.0,0.0,86,0.00,,FEW040CU,0.00,0.00,VWS V14.00,2013-10-28 04:02:00,
2013-10-28 00:07:00,69.1,64.7,30.04,ESE,109,0.0,0.0,86,0.00,,FEW040CU,0.00,0.00,VWS V14.00,2013-10-28 04:07:00,
2013-10-28 00:12:00,69.0,64.6,30.04,ESE,109,0.0,0.0,86,0.00,,FEW040CU,0.00,0.00,VWS V14.00,2013-10-28 04:12:00,
2013-10-28 00:17:00,68.9,64.6,30.04,ESE,109,0.0,0.0,86,0.00,,FEW040CU,0.00,0.00,VWS V14.00,2013-10-28 04:17:00,
2013-10-28 00:22:00,68.8,64.4,30.04,ESE,109,0.0,0.0,86,0.00,,FEW040CU,0.00,0.00,VWS V14.00,2013-10-28 04:22:00,
2013-10-28 00:27:00,68.8,64.8,30.04,ESE,109,0.0,0.0,87,0.00,,FEW040CU,0.00,0.00,VWS V14.00,2013-10-28 04:27:00,
2013-10-28 00:32:00,68.6,64.6,30.04,ESE,109,0.0,0.0,87,0.00,,FEW040CU,0.00,0.00,VWS V14.00,2013-10-28 04:32:00,
2013-10-28 00:37:00,68.4,64.4,30.04,ESE,109,0.0,0.0,87,0.00,,FEW040CU,0.00,0.00,VWS V14.00,2013-10-28 04:37:00,
2013-10-28 00:42:00,68.4,64.4,30.04,ESE,109,0.0,0.0,87,0.00,,FEW040CU,0.00,0.00,VWS V14.00,2013-10-28 04:42:00,
2013-10-28 00:47:00,68.3,64.3,30.04,ESE,109,0.0,0.0,87,0.00,,FEW040CU,0.00,0.00,VWS V14.00,2013-10-28 04:47:00,
2013-10-28 00:52:00,68.3,64.3,30.04,ESE,109,0.0,0.0,87,0.00,,FEW040CU,0.00,0.00,VWS V14.00,2013-10-28 04:52:00,
2013-10-28 00:57:00,68.1,64.1,30.04,ESE,109,0.0,0.0,87,0.00,,FEW040CU,0.00,0.00,VWS V14.00,2013-10-28 04:57:00,
2013-10-28 01:02:00,68.0,64.0,30.04,ESE,109,0.0,0.0,87,0.00,,FEW040CU,0.00,0.00,VWS V14.00,2013-10-28 05:02:00,
2013-10-28 01:07:00,67.9,63.9,30.03,ESE,109,0.0,0.0,87,0.00,,FEW040CU,0.00,0.00,VWS V14.00,2013-10-28 05:07:00,
2013-10-28 01:12:00,67.9,63.9,30.03,ESE,109,0.0,0.0,87,0.00,,FEW040CU,0.00,0.00,VWS V14.00,2013-10-28 05:12:00,
2013-10-28 01:17:00,67.8,63.8,30.03,ESE,109,0.0,0.0,87,0.00,,FEW040CU,0.00,0.00,VWS V14.00,2013-10-28 05:17:00,
2013-10-28 01:22:00,67.9,63.9,30.03,ESE,109,0.0,0.0,87,0.00,,FEW040CU,0.00,0.00,VWS V14.00,2013-10-28 05:22:00,
2013-10-28 01:27:00,67.9,63.9,30.03,ESE,109,0.0,1.0,87,0.00,,FEW040CU,0.00,0.00,VWS V14.00,2013-10-28 05:27:00,
2013-10-28 01:32:00,67.9,64.2,30.03,ESE,109,0.0,0.0,88,0.00,,FEW040CU,0.00,0.00,VWS V14.00,2013-10-28 05:32:00,
2013-10-28 01:38:00,67.9,64.2,30.03,ESE,109,0.0,0.0,88,0.00,,FEW040CU,0.00,0.00,VWS V14.00,2013-10-28 05:38:00,
2013-10-28 01:42:00,67.8,64.1,30.03,ESE,109,0.0,0.0,88,0.00,,FEW040CU,0.00,0.00,VWS V14.00,2013-10-28 05:42:00,
2013-10-28 01:48:00,67.8,64.1,30.03,ESE,109,0.0,0.0,88,0.00,,FEW040CU,0.00,0.00,VWS V14.00,2013-10-28 05:48:00,
2013-10-28 01:53:00,67.7,64.0,30.02,ESE,109,0.0,0.0,88,0.00,,FEW040CU,0.00,0.00,VWS V14.00,2013-10-28 05:53:00,
2013-10-28 01:58:00,67.8,64.1,30.02,ESE,109,0.0,0.0,88,0.00,,FEW040CU,0.00,0.00,VWS V14.00,2013-10-28 05:58:00,
2013-10-28 02:03:00,67.8,64.1,30.02,ESE,109,0.0,0.0,88,0.00,,FEW040CU,0.00,0.00,VWS V14.00,2013-10-28 06:03:00,
2013-10-28 02:08:00,67.6,63.9,30.03,ESE,109,0.0,0.0,88,0.00,,FEW040CU,0.00,0.00,VWS V14.00,2013-10-28 06:08:00,
2013-10-28 02:13:00,67.7,64.0,30.03,ESE,109,0.0,0.0,88,0.00,,FEW040CU,0.00,0.00,VWS V14.00,2013-10-28 06:13:00,
2013-10-28 02:18:00,67.6,63.9,30.03,ESE,109,0.0,0.0,88,0.00,,FEW040CU,0.00,0.00,VWS V14.00,2013-10-28 06:18:00,
2013-10-28 02:23:00,67.5,63.8,30.03,ESE,109,0.0,0.0,88,0.00,,FEW040CU,0.00,0.00,VWS V14.00,2013-10-28 06:23:00,
2013-10-28 02:28:00,67.5,63.8,30.03,ESE,109,0.0,0.0,88,0.00,,FEW040CU,0.00,0.00,VWS V14.00,2013-10-28 06:28:00,
2013-10-28 02:33:00,67.6,63.9,30.02,ESE,109,0.0,0.0,88,0.00,,FEW040CU,0.00,0.00,VWS V14.00,2013-10-28 06:33:00,
2013-10-28 02:38:00,67.6,63.9,30.02,ESE,109,0.0,0.0,88,0.00,,FEW040CU,0.00,0.00,VWS V14.00,2013-10-28 06:38:00,
2013-10-28 02:43:00,67.7,64.0,30.02,ESE,109,0.0,1.0,88,0.00,,FEW040CU,0.00,0.00,VWS V14.00,2013-10-28 06:43:00,
2013-10-28 02:48:00,67.6,63.9,30.02,ESE,109,0.0,0.0,88,0.00,,FEW040CU,0.00,0.00,VWS V14.00,2013-10-28 06:48:00,
2013-10-28 02:53:00,67.6,63.9,30.01,ESE,109,0.0,0.0,88,0.00,,FEW040CU,0.00,0.00,VWS V14.00,2013-10-28 06:53:00,
2013-10-28 02:58:00,67.5,63.8,30.01,ESE,109,0.0,0.0,88,0.00,,FEW040CU,0.00,0.00,VWS V14.00,2013-10-28 06:58:00,
2013-10-28 03:03:00,67.5,63.8,30.01,ESE,109,0.0,0.0,88,0.00,,FEW040CU,0.00,0.00,VWS V14.00,2013-10-28 07:03:00,
2013-10-28 03:08:00,67.3,63.6,30.00,ESE,109,0.0,0.0,88,0.00,,FEW040CU,0.00,0.00,VWS V14.00,2013-10-28 07:08:00,
2013-10-28 03:13:00,67.4,63.7,30.01,ESE,109,0.0,0.0,88,0.00,,FEW040CU,0.00,0.00,VWS V14.00,2013-10-28 07:13:00,
2013-10-28 03:18:00,67.4,63.7,30.01,ESE,109,0.0,0.0,88,0.00,,FEW040CU,0.00,0.00,VWS V14.00,2013-10-28 07:18:00,
2013-10-28 03:23:00,67.4,63.7,30.01,ESE,109,0.0,0.0,88,0.00,,FEW040CU,0.00,0.00,VWS V14.00,2013-10-28 07:23:00,
2013-10-28 03:28:00,67.4,63.7,30.01,ESE,109,0.0,0.0,88,0.00,,FEW040CU,0.00,0.00,VWS V14.00,2013-10-28 07:28:00,
2013-10-28 03:33:00,67.4,63.7,30.01,ESE,109,0.0,1.0,88,0.00,,FEW040CU,0.00,0.00,VWS V14.00,2013-10-28 07:33:00,
2013-10-28 03:38:00,67.6,63.9,30.01,ESE,109,0.0,0.0,88,0.00,,FEW040CU,0.00,0.00,VWS V14.00,2013-10-28 07:38:00,
2013-10-28 03:43:00,67.4,63.7,30.01,ESE,109,0.0,1.0,88,0.00,,FEW040CU,0.00,0.00,VWS V14.00,2013-10-28 07:43:00,
2013-10-28 03:48:00,67.3,63.6,30.01,ESE,109,0.0,0.0,88,0.00,,FEW040CU,0.00,0.00,VWS V14.00,2013-10-28 07:48:00,
2013-10-28 03:53:00,67.3,63.6,30.01,ESE,109,0.0,0.0,88,0.00,,FEW040CU,0.00,0.00,VWS V14.00,2013-10-28 07:53:00,
2013-10-28 03:58:00,67.2,63.5,30.00,ESE,109,0.0,0.0,88,0.00,,FEW040CU,0.00,0.00,VWS V14.00,2013-10-28 07:58:00,
2013-10-28 04:03:00,67.0,63.3,30.01,ESE,109,0.0,0.0,88,0.00,,FEW040CU,0.00,0.00,VWS V14.00,2013-10-28 08:03:00,
2013-10-28 04:08:00,66.9,63.2,30.01,ESE,109,0.0,0.0,88,0.00,,FEW040CU,0.00,0.00,VWS V14.00,2013-10-28 08:08:00,
2013-10-28 04:13:00,66.9,63.6,30.00,ESE,109,0.0,0.0,89,0.00,,FEW040CU,0.00,0.00,VWS V14.00,2013-10-28 08:13:00,
2013-10-28 04:18:00,67.0,63.7,30.01,ESE,109,0.0,0.0,89,0.00,,FEW040CU,0.00,0.00,VWS V14.00,2013-10-28 08:18:00,
2013-10-28 04:23:00,67.0,63.3,30.01,ESE,109,0.0,0.0,88,0.00,,FEW040CU,0.00,0.00,VWS V14.00,2013-10-28 08:23:00,
2013-10-28 04:28:00,67.0,63.7,30.01,ESE,109,0.0,0.0,89,0.00,,FEW040CU,0.00,0.00,VWS V14.00,2013-10-28 08:28:00,
2013-10-28 04:33:00,66.8,63.5,30.01,ESE,109,0.0,0.0,89,0.00,,FEW040CU,0.00,0.00,VWS V14.00,2013-10-28 08:33:00,
2013-10-28 04:38:00,66.8,63.5,30.01,ESE,109,0.0,0.0,89,0.00,,FEW040CU,0.00,0.00,VWS V14.00,2013-10-28 08:38:00,
2013-10-28 04:43:00,66.8,63.5,30.01,ESE,109,0.0,1.0,89,0.00,,FEW040CU,0.00,0.00,VWS V14.00,2013-10-28 08:43:00,
2013-10-28 04:48:00,66.8,63.5,30.01,ESE,109,0.0,0.0,89,0.00,,FEW040CU,0.00,0.00,VWS V14.00,2013-10-28 08:48:00,
2013-10-28 04:53:00,66.7,63.4,30.02,ESE,109,0.0,0.0,89,0.00,,FEW040CU,0.00,0.00,VWS V14.00,2013-10-28 08:53:00,
2013-10-28 04:58:00,66.7,63.4,30.01,ESE,109,0.0,0.0,89,0.00,,FEW040CU,0.00,0.00,VWS V14.00,2013-10-28 08:58:00,
2013-10-28 05:03:00,66.8,63.5,30.01,ESE,109,0.0,0.0,89,0.00,,FEW040CU,0.00,0.00,VWS V14.00,2013-10-28 09:03:00,
2013-10-28 05:08:00,66.8,63.5,30.01,ESE,109,0.0,0.0,89,0.00,,FEW040CU,0.00,0.00,VWS V14.00,2013-10-28 09:08:00,
2013-10-28 05:13:00,66.8,63.5,30.02,ESE,109,0.0,0.0,89,0.00,,FEW040CU,0.00,0.00,VWS V14.00,2013-10-28 09:13:00,
2013-10-28 05:18:00,66.7,63.4,30.01,ESE,109,0.0,0.0,89,0.00,,FEW040CU,0.00,0.00,VWS V14.00,2013-10-28 09:18:00,
2013-10-28 05:23:00,66.6,63.3,30.01,ESE,109,0.0,0.0,89,0.00,,FEW040CU,0.00,0.00,VWS V14.00,2013-10-28 09:23:00,
2013-10-28 05:28:00,66.6,63.3,30.01,ESE,109,0.0,0.0,89,0.00,,FEW040CU,0.00,0.00,VWS V14.00,2013-10-28 09:28:00,
2013-10-28 05:33:00,66.7,63.4,30.02,ESE,109,0.0,0.0,89,0.00,,FEW040CU,0.00,0.00,VWS V14.00,2013-10-28 09:33:00,
2013-10-28 05:38:00,66.8,63.5,30.02,ESE,109,0.0,0.0,89,0.00,,FEW040CU,0.00,0.00,VWS V14.00,2013-10-28 09:38:00,
2013-10-28 05:43:00,66.8,63.5,30.02,ESE,109,0.0,0.0,89,0.00,,FEW040CU,0.00,0.00,VWS V14.00,2013-10-28 09:43:00,
2013-10-28 05:48:00,66.8,63.5,30.02,ESE,109,0.0,0.0,89,0.00,,FEW040CU,0.00,0.00,VWS V14.00,2013-10-28 09:48:00,
2013-10-28 05:53:00,66.7,63.4,30.02,ESE,109,0.0,0.0,89,0.00,,FEW040CU,0.00,0.00,VWS V14.00,2013-10-28 09:53:00,
2013-10-28 05:58:00,66.7,63.4,30.02,ESE,109,0.0,0.0,89,0.00,,FEW040CU,0.00,0.00,VWS V14.00,2013-10-28 09:58:00,
2013-10-28 06:03:00,66.6,63.3,30.02,ESE,109,0.0,0.0,89,0.00,,FEW040CU,0.00,0.00,VWS V14.00,2013-10-28 10:03:00,
2013-10-28 06:08:00,66.6,63.3,30.02,ESE,109,0.0,0.0,89,0.00,,FEW040CU,0.00,0.00,VWS V14.00,2013-10-28 10:08:00,
2013-10-28 06:13:00,66.7,63.4,30.02,ESE,109,0.0,0.0,89,0.00,,FEW040CU,0.00,0.00,VWS V14.00,2013-10-28 10:13:00,
2013-10-28 06:18:00,66.7,63.4,30.02,ESE,109,0.0,0.0,89,0.00,,FEW040CU,0.00,0.00,VWS V14.00,2013-10-28 10:18:00,
2013-10-28 06:23:00,66.6,63.3,30.02,ESE,109,0.0,0.0,89,0.00,,FEW040CU,0.00,0.00,VWS V14.00,2013-10-28 10:23:00,
2013-10-28 06:28:00,66.5,63.2,30.02,ESE,109,0.0,0.0,89,0.00,,FEW040CU,0.00,0.00,VWS V14.00,2013-10-28 10:28:00,
2013-10-28 06:33:00,66.4,63.1,30.02,ESE,109,0.0,0.0,89,0.00,,FEW040CU,0.00,0.00,VWS V14.00,2013-10-28 10:33:00,
2013-10-28 06:38:00,66.7,63.4,30.03,ESE,109,0.0,0.0,89,0.00,,FEW040CU,0.00,0.00,VWS V14.00,2013-10-28 10:38:00,
2013-10-28 06:43:00,66.6,63.3,30.03,ESE,109,1.0,2.0,89,0.00,,FEW040CU,0.00,0.00,VWS V14.00,2013-10-28 10:43:00,
2013-10-28 06:48:00,66.5,63.2,30.03,ESE,109,0.0,0.0,89,0.00,,FEW040CU,0.00,0.00,VWS V14.00,2013-10-28 10:48:00,
2013-10-28 06:53:00,66.5,63.2,30.03,ESE,109,0.0,0.0,89,0.00,,FEW040CU,0.00,0.00,VWS V14.00,2013-10-28 10:53:00,
2013-10-28 06:58:00,66.5,63.2,30.03,ESE,109,0.0,0.0,89,0.00,,FEW040CU,0.00,0.00,VWS V14.00,2013-10-28 10:58:00,
2013-10-28 07:03:00,66.4,63.1,30.04,ESE,109,0.0,0.0,89,0.00,,FEW040CU,0.00,0.00,VWS V14.00,2013-10-28 11:03:00,
2013-10-28 07:08:00,66.3,63.0,30.04,ESE,109,0.0,0.0,89,0.00,,FEW040CU,0.00,0.00,VWS V14.00,2013-10-28 11:08:00,
2013-10-28 07:13:00,66.4,63.1,30.04,ESE,109,0.0,0.0,89,0.00,,FEW040CU,0.00,0.00,VWS V14.00,2013-10-28 11:13:00,
2013-10-28 07:18:00,66.3,63.0,30.04,ESE,109,0.0,0.0,89,0.00,,FEW040CU,0.00,0.00,VWS V14.00,2013-10-28 11:18:00,
2013-10-28 07:24:00,66.3,63.0,30.04,ESE,109,0.0,0.0,89,0.00,,FEW040CU,0.00,0.00,VWS V14.00,2013-10-28 11:24:00,
2013-10-28 07:29:00,66.2,62.9,30.04,ESE,109,0.0,0.0,89,0.00,,FEW040CU,0.00,0.00,VWS V14.00,2013-10-28 11:29:00,
2013-10-28 07:34:00,66.2,62.9,30.05,ESE,109,0.0,1.0,89,0.00,,FEW040CU,0.00,0.00,VWS V14.00,2013-10-28 11:34:00,
2013-10-28 07:39:00,66.1,62.8,30.05,ESE,109,0.0,0.0,89,0.00,,FEW040CU,0.00,5.00,VWS V14.00,2013-10-28 11:39:00,
2013-10-28 07:44:00,66.1,62.8,30.05,ESE,109,0.0,0.0,89,0.00,,FEW040CU,0.00,26.00,VWS V14.00,2013-10-28 11:44:00,
2013-10-28 07:49:00,66.3,63.0,30.05,ESE,109,0.0,0.0,89,0.00,,FEW040CU,0.00,42.00,VWS V14.00,2013-10-28 11:49:00,
2013-10-28 07:54:00,66.4,63.1,30.05,ESE,109,0.0,0.0,89,0.00,,FEW040CU,0.00,39.00,VWS V14.00,2013-10-28 11:54:00,
2013-10-28 07:59:00,66.6,63.3,30.06,ESE,109,0.0,0.0,89,0.00,,FEW040CU,0.00,58.00,VWS V14.00,2013-10-28 11:59:00,
2013-10-28 08:04:00,66.7,63.4,30.06,ESE,109,0.0,0.0,89,0.00,,FEW040CU,0.00,63.00,VWS V14.00,2013-10-28 12:04:00,
2013-10-28 08:09:00,66.8,63.5,30.05,ESE,109,0.0,0.0,89,0.00,,FEW040CU,0.00,69.00,VWS V14.00,2013-10-28 12:09:00,
2013-10-28 08:14:00,67.0,63.7,30.05,ESE,109,0.0,0.0,89,0.00,,FEW040CU,0.00,70.00,VWS V14.00,2013-10-28 12:14:00,
2013-10-28 08:19:00,67.2,63.8,30.06,ESE,109,0.0,1.0,89,0.00,,FEW040CU,0.00,77.00,VWS V14.00,2013-10-28 12:19:00,
2013-10-28 08:24:00,67.4,64.1,30.06,ESE,109,0.0,0.0,89,0.00,,FEW040CU,0.00,84.00,VWS V14.00,2013-10-28 12:24:00,
2013-10-28 08:29:00,67.8,64.4,30.06,ESE,109,0.0,0.0,89,0.00,,FEW040CU,0.00,90.00,VWS V14.00,2013-10-28 12:29:00,
2013-10-28 08:34:00,68.0,64.6,30.06,ESE,109,0.0,0.0,89,0.00,,FEW100,0.00,91.00,VWS V14.00,2013-10-28 12:34:00,
2013-10-28 08:39:00,68.4,65.0,30.06,ESE,109,0.0,1.0,89,0.00,,FEW100,0.00,95.00,VWS V14.00,2013-10-28 12:39:00,
2013-10-28 08:44:00,68.8,65.4,30.06,ESE,109,0.0,1.0,89,0.00,,FEW100,0.00,95.00,VWS V14.00,2013-10-28 12:44:00,
2013-10-28 08:49:00,69.3,65.9,30.06,ESE,109,2.0,3.0,89,0.00,,FEW100,0.00,93.00,VWS V14.00,2013-10-28 12:49:00,
2013-10-28 08:54:00,69.5,65.8,30.07,ESE,109,0.0,0.0,88,0.00,,FEW100,0.00,95.00,VWS V14.00,2013-10-28 12:54:00,
2013-10-28 08:59:00,69.9,66.2,30.07,ESE,109,3.0,3.0,88,0.00,,FEW100,0.00,98.00,VWS V14.00,2013-10-28 12:59:00,
2013-10-28 09:04:00,70.4,66.3,30.07,ESE,109,4.0,4.0,87,0.00,,FEW100,0.00,100.00,VWS V14.00,2013-10-28 13:04:00,
2013-10-28 09:09:00,71.0,66.6,30.07,ESE,107,3.0,3.0,86,0.00,,FEW100,0.00,102.00,VWS V14.00,2013-10-28 13:09:00,
2013-10-28 09:14:00,71.5,66.8,30.07,ESE,107,0.0,1.0,85,0.00,,FEW100,0.00,107.00,VWS V14.00,2013-10-28 13:14:00,
2013-10-28 09:19:00,72.0,66.9,30.07,ESE,107,0.0,0.0,84,0.00,,FEW100,0.00,111.00,VWS V14.00,2013-10-28 13:19:00,
2013-10-28 09:24:00,72.6,67.5,30.07,ESE,107,5.0,5.0,84,0.00,,FEW100,0.00,116.00,VWS V14.00,2013-10-28 13:24:00,
2013-10-28 09:29:00,73.1,67.6,30.07,ESE,107,0.0,1.0,83,0.00,,FEW100,0.00,120.00,VWS V14.00,2013-10-28 13:29:00,
2013-10-28 09:34:00,73.5,67.7,30.07,ESE,107,1.0,1.0,82,0.00,,CLR,0.00,120.00,VWS V14.00,2013-10-28 13:34:00,
2013-10-28 09:39:00,74.0,67.4,30.08,ESE,107,2.0,3.0,80,0.00,,CLR,0.00,121.00,VWS V14.00,2013-10-28 13:39:00,
2013-10-28 09:44:00,74.7,67.8,30.08,ESE,107,3.0,4.0,79,0.00,,CLR,0.00,121.00,VWS V14.00,2013-10-28 13:44:00,
2013-10-28 09:49:00,75.2,67.5,30.08,ESE,106,1.0,1.0,77,0.00,,CLR,0.00,121.00,VWS V14.00,2013-10-28 13:49:00,
2013-10-28 09:54:00,75.8,67.3,30.08,ESE,106,3.0,5.0,75,0.00,,CLR,0.00,123.00,VWS V14.00,2013-10-28 13:54:00,
2013-10-28 09:59:00,76.4,67.5,30.08,ESE,106,4.0,6.0,74,0.00,,CLR,0.00,121.00,VWS V14.00,2013-10-28 13:59:00,
2013-10-28 10:04:00,76.9,67.6,30.08,ESE,106,2.0,5.0,73,0.00,,CLR,0.00,123.00,VWS V14.00,2013-10-28 14:04:00,
2013-10-28 10:09:00,77.4,66.9,30.08,ESE,102,5.0,6.0,70,0.00,,CLR,0.00,123.00,VWS V14.00,2013-10-28 14:09:00,
2013-10-28 10:14:00,78.0,66.6,30.09,ESE,113,4.0,9.0,68,0.00,,CLR,0.00,125.00,VWS V14.00,2013-10-28 14:14:00,
2013-10-28 10:19:00,78.4,66.6,30.09,ESE,122,7.0,11.0,67,0.00,,CLR,0.00,125.00,VWS V14.00,2013-10-28 14:19:00,
2013-10-28 10:24:00,78.7,66.4,30.09,ESE,106,4.0,10.0,66,0.00,,CLR,0.00,125.00,VWS V14.00,2013-10-28 14:24:00,
2013-10-28 10:29:00,78.7,66.4,30.09,ESE,116,8.0,12.0,66,0.00,,CLR,0.00,127.00,VWS V14.00,2013-10-28 14:29:00,
2013-10-28 10:34:00,78.9,65.7,30.09,ESE,123,5.0,11.0,64,0.00,,CLR,0.00,123.00,VWS V14.00,2013-10-28 14:34:00,
2013-10-28 10:39:00,79.1,65.9,30.10,ESE,115,4.0,6.0,64,0.00,,CLR,0.00,116.00,VWS V14.00,2013-10-28 14:39:00,
2013-10-28 10:44:00,79.2,66.0,30.09,ESE,113,6.0,9.0,64,0.00,,CLR,0.00,107.00,VWS V14.00,2013-10-28 14:44:00,
2013-10-28 10:49:00,79.3,66.5,30.09,ESE,110,0.0,2.0,65,0.00,,CLR,0.00,102.00,VWS V14.00,2013-10-28 14:49:00,
2013-10-28 10:54:00,79.5,66.3,30.09,ESE,104,9.0,11.0,64,0.00,,CLR,0.00,104.00,VWS V14.00,2013-10-28 14:54:00,
2013-10-28 10:59:00,79.2,66.0,30.09,ESE,112,4.0,7.0,64,0.00,,CLR,0.00,105.00,VWS V14.00,2013-10-28 14:59:00,
2013-10-28 11:04:00,79.3,66.1,30.09,ESE,111,9.0,11.0,64,0.00,,CLR,0.00,107.00,VWS V14.00,2013-10-28 15:04:00,
2013-10-28 11:09:00,79.2,66.0,30.09,ESE,120,7.0,10.0,64,0.00,,CLR,0.00,109.00,VWS V14.00,2013-10-28 15:09:00,
2013-10-28 11:14:00,79.7,66.5,30.09,SE,146,3.0,7.0,64,0.00,,CLR,0.00,111.00,VWS V14.00,2013-10-28 15:14:00,
2013-10-28 11:19:00,79.7,66.9,30.09,ESE,114,8.0,8.0,65,0.00,,CLR,0.00,98.00,VWS V14.00,2013-10-28 15:19:00,
2013-10-28 11:24:00,79.7,66.9,30.09,ESE,116,3.0,6.0,65,0.00,,CLR,0.00,114.00,VWS V14.00,2013-10-28 15:24:00,
2013-10-28 11:29:00,79.8,67.0,30.09,East,98,7.0,7.0,65,0.00,,CLR,0.00,111.00,VWS V14.00,2013-10-28 15:29:00,
2013-10-28 11:34:00,79.7,66.5,30.09,SE,140,6.0,8.0,64,0.00,,FEW033,0.00,113.00,VWS V14.00,2013-10-28 15:34:00,
2013-10-28 11:39:00,79.8,65.2,30.08,ESE,108,6.0,8.0,61,0.00,,FEW033,0.00,113.00,VWS V14.00,2013-10-28 15:39:00,
2013-10-28 11:44:00,80.0,63.9,30.08,East,92,7.0,10.0,58,0.00,,FEW033,0.00,113.00,VWS V14.00,2013-10-28 15:44:00,
2013-10-28 11:49:00,80.0,64.9,30.09,East,88,11.0,11.0,60,0.00,,FEW033,0.00,114.00,VWS V14.00,2013-10-28 15:49:00,
2013-10-28 11:54:00,80.1,65.4,30.08,ESE,103,2.0,7.0,61,0.00,,FEW033,0.00,116.00,VWS V14.00,2013-10-28 15:54:00,
2013-10-28 11:59:00,80.3,65.6,30.08,SSE,153,12.0,12.0,61,0.00,,FEW033,0.00,116.00,VWS V14.00,2013-10-28 15:59:00,
2013-10-28 12:04:00,80.2,65.5,30.08,ESE,113,9.0,10.0,61,0.00,,FEW033,0.00,118.00,VWS V14.00,2013-10-28 16:04:00,
2013-10-28 12:09:00,80.5,65.3,30.08,East,94,5.0,10.0,60,0.00,,FEW033,0.00,120.00,VWS V14.00,2013-10-28 16:09:00,
2013-10-28 12:14:00,80.3,65.6,30.08,East,85,7.0,10.0,61,0.00,,FEW033,0.00,120.00,VWS V14.00,2013-10-28 16:14:00,
2013-10-28 12:19:00,80.4,64.3,30.08,SE,134,7.0,11.0,58,0.00,,FEW033,0.00,121.00,VWS V14.00,2013-10-28 16:19:00,
2013-10-28 12:24:00,80.9,65.2,30.07,SE,134,5.0,11.0,59,0.00,,FEW033,0.00,121.00,VWS V14.00,2013-10-28 16:24:00,
2013-10-28 12:29:00,81.1,65.9,30.07,ESE,123,4.0,6.0,60,0.00,,FEW033,0.00,123.00,VWS V14.00,2013-10-28 16:29:00,
2013-10-28 12:34:00,80.9,66.2,30.08,ESE,121,9.0,10.0,61,0.00,,FEW030,0.00,123.00,VWS V14.00,2013-10-28 16:34:00,
2013-10-28 12:39:00,80.7,66.0,30.07,SE,126,10.0,10.0,61,0.00,,FEW030,0.00,123.00,VWS V14.00,2013-10-28 16:39:00,
2013-10-28 12:44:00,80.5,66.3,30.07,ESE,105,5.0,11.0,62,0.00,,FEW030,0.00,125.00,VWS V14.00,2013-10-28 16:44:00,
2013-10-28 12:49:00,80.7,65.1,30.07,East,100,9.0,12.0,59,0.00,,FEW030,0.00,127.00,VWS V14.00,2013-10-28 16:49:00,
2013-10-28 12:54:00,80.6,65.9,30.06,ESE,119,5.0,7.0,61,0.00,,FEW030,0.00,125.00,VWS V14.00,2013-10-28 16:54:00,
2013-10-28 12:59:00,80.7,66.5,30.06,ESE,111,1.0,3.0,62,0.00,,FEW030,0.00,125.00,VWS V14.00,2013-10-28 16:59:00,
2013-10-28 13:04:00,80.8,65.6,30.06,East,95,6.0,12.0,60,0.00,,FEW030,0.00,125.00,VWS V14.00,2013-10-28 17:04:00,
2013-10-28 13:09:00,80.7,66.5,30.06,ESE,105,4.0,11.0,62,0.00,,FEW030,0.00,127.00,VWS V14.00,2013-10-28 17:09:00,
2013-10-28 13:14:00,81.1,66.4,30.06,SE,124,11.0,11.0,61,0.00,,FEW030,0.00,127.00,VWS V14.00,2013-10-28 17:14:00,
2013-10-28 13:19:00,81.3,66.6,30.06,ESE,110,13.0,14.0,61,0.00,,FEW030,0.00,127.00,VWS V14.00,2013-10-28 17:19:00,
2013-10-28 13:24:00,80.8,66.1,30.06,ESE,105,8.0,9.0,61,0.00,,FEW030,0.00,127.00,VWS V14.00,2013-10-28 17:24:00,
2013-10-28 13:29:00,81.0,65.8,30.06,ENE,69,6.0,7.0,60,0.00,,FEW030,0.00,127.00,VWS V14.00,2013-10-28 17:29:00,
2013-10-28 13:34:00,81.0,65.8,30.06,ENE,78,4.0,11.0,60,0.00,,FEW030,0.00,127.00,VWS V14.00,2013-10-28 17:34:00,
2013-10-28 13:39:00,81.5,66.3,30.05,ENE,69,7.0,10.0,60,0.00,,FEW030,0.00,127.00,VWS V14.00,2013-10-28 17:39:00,
2013-10-28 13:44:00,81.5,65.8,30.05,ESE,122,10.0,12.0,59,0.00,,FEW030,0.00,125.00,VWS V14.00,2013-10-28 17:44:00,
2013-10-28 13:49:00,81.3,65.6,30.05,ESE,105,9.0,12.0,59,0.00,,FEW030,0.00,127.00,VWS V14.00,2013-10-28 17:49:00,
2013-10-28 13:54:00,81.5,64.3,30.05,SE,137,2.0,9.0,56,0.00,,FEW030,0.00,127.00,VWS V14.00,2013-10-28 17:54:00,
2013-10-28 13:59:00,81.8,64.6,30.04,ESE,123,5.0,11.0,56,0.00,,FEW030,0.00,125.00,VWS V14.00,2013-10-28 17:59:00,
2013-10-28 14:04:00,81.9,64.7,30.04,ENE,74,9.0,12.0,56,0.00,,FEW030,0.00,123.00,VWS V14.00,2013-10-28 18:04:00,
2013-10-28 14:09:00,81.7,62.9,30.04,ENE,73,10.0,13.0,53,0.00,,FEW030,0.00,123.00,VWS V14.00,2013-10-28 18:09:00,
2013-10-28 14:14:00,81.5,64.3,30.04,East,99,5.0,8.0,56,0.00,,FEW030,0.00,121.00,VWS V14.00,2013-10-28 18:14:00,
2013-10-28 14:19:00,81.6,64.4,30.04,ESE,110,8.0,10.0,56,0.00,,FEW030,0.00,121.00,VWS V14.00,2013-10-28 18:19:00,
2013-10-28 14:24:00,81.5,63.8,30.04,ESE,109,10.0,12.0,55,0.00,,FEW030,0.00,120.00,VWS V14.00,2013-10-28 18:24:00,
2013-10-28 14:29:00,81.2,63.5,30.04,ENE,76,4.0,5.0,55,0.00,,FEW030,0.00,120.00,VWS V14.00,2013-10-28 18:29:00,
2013-10-28 14:34:00,81.6,64.9,30.04,SE,144,4.0,10.0,57,0.00,,CLR,0.00,118.00,VWS V14.00,2013-10-28 18:34:00,
2013-10-28 14:39:00,81.8,64.1,30.03,SE,134,7.0,12.0,55,0.00,,CLR,0.00,116.00,VWS V14.00,2013-10-28 18:39:00,
2013-10-28 14:44:00,81.6,64.4,30.03,ESE,112,4.0,10.0,56,0.00,,CLR,0.00,114.00,VWS V14.00,2013-10-28 18:44:00,
2013-10-28 14:49:00,81.5,64.8,30.03,East,101,7.0,10.0,57,0.00,,CLR,0.00,113.00,VWS V14.00,2013-10-28 18:49:00,
2013-10-28 14:54:00,81.4,65.2,30.03,ESE,123,11.0,12.0,58,0.00,,CLR,0.00,111.00,VWS V14.00,2013-10-28 18:54:00,
2013-10-28 14:59:00,81.8,64.6,30.03,ESE,111,7.0,11.0,56,0.00,,CLR,0.00,111.00,VWS V14.00,2013-10-28 18:59:00,
2013-10-28 15:04:00,81.9,65.2,30.02,ESE,119,5.0,10.0,57,0.00,,CLR,0.00,109.00,VWS V14.00,2013-10-28 19:04:00,
2013-10-28 15:09:00,81.9,64.7,30.03,ESE,123,4.0,6.0,56,0.00,,CLR,0.00,109.00,VWS V14.00,2013-10-28 19:09:00,
2013-10-28 15:14:00,81.9,65.2,30.02,East,86,11.0,12.0,57,0.00,,CLR,0.00,105.00,VWS V14.00,2013-10-28 19:14:00,
2013-10-28 15:19:00,81.3,65.1,30.02,ESE,110,5.0,12.0,58,0.00,,CLR,0.00,104.00,VWS V14.00,2013-10-28 19:19:00,
2013-10-28 15:24:00,81.0,64.3,30.02,East,90,7.0,11.0,57,0.00,,CLR,0.00,104.00,VWS V14.00,2013-10-28 19:24:00,
2013-10-28 15:29:00,81.2,64.0,30.02,ESE,115,10.0,12.0,56,0.00,,CLR,0.00,100.00,VWS V14.00,2013-10-28 19:29:00,
2013-10-28 15:34:00,81.1,63.4,30.02,East,85,6.0,13.0,55,0.00,,CLR,0.00,100.00,VWS V14.00,2013-10-28 19:34:00,
2013-10-28 15:39:00,81.3,64.6,30.02,East,99,6.0,7.0,57,0.00,,CLR,0.00,98.00,VWS V14.00,2013-10-28 19:39:00,
2013-10-28 15:44:00,81.6,63.4,30.02,East,94,6.0,14.0,54,0.00,,CLR,0.00,97.00,VWS V14.00,2013-10-28 19:44:00,
2013-10-28 15:49:00,81.5,61.7,30.03,East,93,9.0,12.0,51,0.00,,CLR,0.00,95.00,VWS V14.00,2013-10-28 19:49:00,
2013-10-28 15:54:00,81.3,62.5,30.03,ESE,109,12.0,14.0,53,0.00,,CLR,0.00,93.00,VWS V14.00,2013-10-28 19:54:00,
2013-10-28 15:59:00,81.0,62.3,30.03,East,99,5.0,10.0,53,0.00,,CLR,0.00,91.00,VWS V14.00,2013-10-28 19:59:00,
2013-10-28 16:04:00,81.1,62.9,30.02,ESE,104,5.0,6.0,54,0.00,,CLR,0.00,90.00,VWS V14.00,2013-10-28 20:04:00,
2013-10-28 16:09:00,81.4,63.2,30.03,ESE,115,6.0,9.0,54,0.00,,CLR,0.00,88.00,VWS V14.00,2013-10-28 20:09:00,
2013-10-28 16:14:00,81.4,62.6,30.02,ESE,102,13.0,14.0,53,0.00,,CLR,0.00,84.00,VWS V14.00,2013-10-28 20:14:00,
2013-10-28 16:19:00,81.1,63.4,30.03,ESE,119,6.0,9.0,55,0.00,,CLR,0.00,84.00,VWS V14.00,2013-10-28 20:19:00,
2013-10-28 16:24:00,81.1,62.9,30.03,ESE,113,6.0,13.0,54,0.00,,CLR,0.00,81.00,VWS V14.00,2013-10-28 20:24:00,
2013-10-28 16:29:00,80.9,63.2,30.03,ESE,115,7.0,10.0,55,0.00,,CLR,0.00,79.00,VWS V14.00,2013-10-28 20:29:00,
2013-10-28 16:34:00,80.8,63.1,30.03,ESE,109,5.0,12.0,55,0.00,,CLR,0.00,76.00,VWS V14.00,2013-10-28 20:34:00,
2013-10-28 16:39:00,80.9,63.2,30.03,East,96,5.0,12.0,55,0.00,,CLR,0.00,74.00,VWS V14.00,2013-10-28 20:39:00,
2013-10-28 16:44:00,80.7,62.5,30.03,East,101,9.0,10.0,54,0.00,,CLR,0.00,76.00,VWS V14.00,2013-10-28 20:44:00,
2013-10-28 16:49:00,80.8,63.1,30.03,East,96,7.0,9.0,55,0.00,,CLR,0.00,76.00,VWS V14.00,2013-10-28 20:49:00,
2013-10-28 16:54:00,80.7,62.0,30.03,ESE,105,10.0,12.0,53,0.00,,CLR,0.00,74.00,VWS V14.00,2013-10-28 20:54:00,
2013-10-28 16:59:00,80.7,62.0,30.03,East,84,5.0,11.0,53,0.00,,CLR,0.00,74.00,VWS V14.00,2013-10-28 20:59:00,
2013-10-28 17:04:00,80.7,62.0,30.03,East,98,7.0,12.0,53,0.00,,CLR,0.00,72.00,VWS V14.00,2013-10-28 21:04:00,
2013-10-28 17:09:00,80.8,62.1,30.03,ENE,71,5.0,10.0,53,0.00,,CLR,0.00,70.00,VWS V14.00,2013-10-28 21:09:00,
2013-10-28 17:14:00,80.7,61.5,30.03,East,100,3.0,10.0,52,0.00,,CLR,0.00,70.00,VWS V14.00,2013-10-28 21:14:00,
2013-10-28 17:19:00,80.8,61.5,30.04,East,87,9.0,9.0,52,0.00,,CLR,0.00,69.00,VWS V14.00,2013-10-28 21:19:00,
2013-10-28 17:24:00,80.9,61.6,30.04,ESE,103,6.0,7.0,52,0.00,,CLR,0.00,67.00,VWS V14.00,2013-10-28 21:24:00,
2013-10-28 17:29:00,81.0,61.7,30.04,ESE,109,7.0,9.0,52,0.00,,CLR,0.00,63.00,VWS V14.00,2013-10-28 21:29:00,
2013-10-28 17:34:00,80.8,63.7,30.04,East,101,7.0,10.0,56,0.00,,CLR,0.00,62.00,VWS V14.00,2013-10-28 21:34:00,
2013-10-28 17:39:00,80.5,63.4,30.04,ESE,104,5.0,10.0,56,0.00,,CLR,0.00,60.00,VWS V14.00,2013-10-28 21:39:00,
2013-10-28 17:44:00,80.4,64.3,30.05,ESE,103,5.0,10.0,58,0.00,,CLR,0.00,58.00,VWS V14.00,2013-10-28 21:44:00,
2013-10-28 17:49:00,80.2,64.1,30.05,ESE,115,7.0,10.0,58,0.00,,CLR,0.00,54.00,VWS V14.00,2013-10-28 21:49:00,
2013-10-28 17:54:00,80.1,64.5,30.05,ESE,103,13.0,13.0,59,0.00,,CLR,0.00,51.00,VWS V14.00,2013-10-28 21:54:00,
2013-10-28 17:59:00,80.0,63.9,30.05,East,99,6.0,10.0,58,0.00,,CLR,0.00,47.00,VWS V14.00,2013-10-28 21:59:00,
2013-10-28 18:04:00,79.9,64.3,30.05,ESE,107,5.0,9.0,59,0.00,,CLR,0.00,42.00,VWS V14.00,2013-10-28 22:04:00,
2013-10-28 18:09:00,79.8,64.7,30.05,East,92,6.0,6.0,60,0.00,,CLR,0.00,39.00,VWS V14.00,2013-10-28 22:09:00,
2013-10-28 18:14:00,79.7,65.5,30.05,East,83,4.0,7.0,62,0.00,,CLR,0.00,33.00,VWS V14.00,2013-10-28 22:14:00,
2013-10-28 18:19:00,79.6,65.4,30.05,ENE,77,4.0,5.0,62,0.00,,CLR,0.00,26.00,VWS V14.00,2013-10-28 22:19:00,
2013-10-28 18:24:00,79.4,65.3,30.05,ENE,75,6.0,7.0,62,0.00,,CLR,0.00,19.00,VWS V14.00,2013-10-28 22:24:00,
2013-10-28 18:29:00,79.3,65.6,30.05,East,79,3.0,6.0,63,0.00,,CLR,0.00,7.00,VWS V14.00,2013-10-28 22:29:00,
2013-10-28 18:34:00,79.1,65.9,30.06,East,84,3.0,5.0,64,0.00,,FEW035CU,0.00,0.00,VWS V14.00,2013-10-28 22:34:00,
2013-10-28 18:39:00,78.9,65.7,30.06,East,80,6.0,6.0,64,0.00,,FEW035CU,0.00,0.00,VWS V14.00,2013-10-28 22:39:00,
2013-10-28 18:44:00,78.8,66.1,30.06,East,80,3.0,5.0,65,0.00,,FEW035CU,0.00,0.00,VWS V14.00,2013-10-28 22:44:00,
2013-10-28 18:49:00,78.7,66.4,30.06,East,80,4.0,4.0,66,0.00,,FEW035CU,0.00,0.00,VWS V14.00,2013-10-28 22:49:00,
2013-10-28 18:54:00,78.5,65.8,30.06,East,80,2.0,4.0,65,0.00,,FEW035CU,0.00,0.00,VWS V14.00,2013-10-28 22:54:00,
2013-10-28 18:59:00,78.4,66.1,30.06,East,81,0.0,4.0,66,0.00,,FEW035CU,0.00,0.00,VWS V14.00,2013-10-28 22:59:00,
2013-10-28 19:04:00,78.2,65.9,30.06,East,81,2.0,4.0,66,0.00,,FEW035CU,0.00,0.00,VWS V14.00,2013-10-28 23:04:00,
2013-10-28 19:09:00,78.0,65.7,30.06,East,81,1.0,3.0,66,0.00,,FEW035CU,0.00,0.00,VWS V14.00,2013-10-28 23:09:00,
2013-10-28 19:14:00,77.9,66.1,30.06,East,81,0.0,2.0,67,0.00,,FEW035CU,0.00,0.00,VWS V14.00,2013-10-28 23:14:00,
2013-10-28 19:19:00,77.8,66.0,30.06,East,81,0.0,4.0,67,0.00,,FEW035CU,0.00,0.00,VWS V14.00,2013-10-28 23:19:00,
2013-10-28 19:24:00,77.6,65.8,30.06,East,81,0.0,2.0,67,0.00,,FEW035CU,0.00,0.00,VWS V14.00,2013-10-28 23:24:00,
2013-10-28 19:29:00,77.6,65.8,30.06,East,81,0.0,0.0,67,0.00,,FEW035CU,0.00,0.00,VWS V14.00,2013-10-28 23:29:00,
2013-10-28 19:34:00,77.4,65.6,30.06,East,81,0.0,1.0,67,0.00,,FEW035CU,0.00,0.00,VWS V14.00,2013-10-28 23:34:00,
2013-10-28 19:39:00,77.3,65.5,30.06,East,81,0.0,1.0,67,0.00,,FEW035CU,0.00,0.00,VWS V14.00,2013-10-28 23:39:00,
2013-10-28 19:44:00,77.3,65.9,30.06,East,81,2.0,2.0,68,0.00,,FEW035CU,0.00,0.00,VWS V14.00,2013-10-28 23:44:00,
2013-10-28 19:49:00,77.2,65.8,30.06,East,81,0.0,0.0,68,0.00,,FEW035CU,0.00,0.00,VWS V14.00,2013-10-28 23:49:00,
2013-10-28 19:55:00,77.1,65.7,30.06,East,81,2.0,3.0,68,0.00,,FEW035CU,0.00,0.00,VWS V14.00,2013-10-28 23:55:00,
2013-10-28 20:00:00,77.0,65.6,30.06,East,81,0.0,2.0,68,0.00,,FEW035CU,0.00,0.00,VWS V14.00,2013-10-29 00:00:00,
2013-10-28 20:05:00,76.9,66.0,30.06,East,81,0.0,0.0,69,0.00,,FEW035CU,0.00,0.00,VWS V14.00,2013-10-29 00:05:00,
2013-10-28 20:10:00,76.9,66.0,30.06,East,81,0.0,0.0,69,0.00,,FEW035CU,0.00,0.00,VWS V14.00,2013-10-29 00:10:00,
2013-10-28 20:15:00,76.8,65.9,30.07,East,81,0.0,1.0,69,0.00,,FEW035CU,0.00,0.00,VWS V14.00,2013-10-29 00:15:00,
2013-10-28 20:20:00,76.7,66.2,30.07,East,81,0.0,0.0,70,0.00,,FEW035CU,0.00,0.00,VWS V14.00,2013-10-29 00:20:00,
2013-10-28 20:25:00,76.6,66.1,30.07,East,81,0.0,0.0,70,0.00,,FEW035CU,0.00,0.00,VWS V14.00,2013-10-29 00:25:00,
2013-10-28 20:30:00,76.5,66.0,30.07,East,81,0.0,1.0,70,0.00,,FEW035CU,0.00,0.00,VWS V14.00,2013-10-29 00:30:00,
2013-10-28 20:35:00,76.4,66.3,30.07,East,81,0.0,0.0,71,0.00,,FEW035CU,0.00,0.00,VWS V14.00,2013-10-29 00:35:00,
2013-10-28 20:40:00,76.3,66.2,30.08,East,81,0.0,0.0,71,0.00,,FEW035CU,0.00,0.00,VWS V14.00,2013-10-29 00:40:00,
2013-10-28 20:45:00,76.2,66.5,30.08,East,81,0.0,0.0,72,0.00,,FEW035CU,0.00,0.00,VWS V14.00,2013-10-29 00:45:00,
2013-10-28 20:50:00,76.1,66.4,30.08,East,81,0.0,0.0,72,0.00,,FEW035CU,0.00,0.00,VWS V14.00,2013-10-29 00:50:00,
2013-10-28 20:55:00,76.0,66.7,30.08,East,81,0.0,0.0,73,0.00,,FEW035CU,0.00,0.00,VWS V14.00,2013-10-29 00:55:00,
2013-10-28 21:00:00,75.8,66.5,30.08,East,81,0.0,0.0,73,0.00,,FEW035CU,0.00,0.00,VWS V14.00,2013-10-29 01:00:00,
2013-10-28 21:05:00,75.7,66.4,30.08,East,81,0.0,0.0,73,0.00,,FEW035CU,0.00,0.00,VWS V14.00,2013-10-29 01:05:00,
2013-10-28 21:10:00,75.7,66.8,30.08,East,81,0.0,0.0,74,0.00,,FEW035CU,0.00,0.00,VWS V14.00,2013-10-29 01:10:00,
2013-10-28 21:15:00,75.5,66.6,30.08,East,81,0.0,0.0,74,0.00,,FEW035CU,0.00,0.00,VWS V14.00,2013-10-29 01:15:00,
2013-10-28 21:20:00,75.4,66.5,30.08,East,81,0.0,0.0,74,0.00,,FEW035CU,0.00,0.00,VWS V14.00,2013-10-29 01:20:00,
2013-10-28 21:25:00,75.2,66.3,30.08,East,81,0.0,0.0,74,0.00,,FEW035CU,0.00,0.00,VWS V14.00,2013-10-29 01:25:00,
2013-10-28 21:30:00,75.1,66.2,30.08,East,81,0.0,0.0,74,0.00,,FEW035CU,0.00,0.00,VWS V14.00,2013-10-29 01:30:00,
2013-10-28 21:35:00,74.9,66.4,30.09,East,81,0.0,0.0,75,0.00,,FEW035CU,0.00,0.00,VWS V14.00,2013-10-29 01:35:00,
2013-10-28 21:40:00,74.8,66.3,30.09,East,81,0.0,0.0,75,0.00,,FEW035CU,0.00,0.00,VWS V14.00,2013-10-29 01:40:00,
2013-10-28 21:45:00,74.6,66.9,30.09,East,81,0.0,0.0,77,0.00,,FEW035CU,0.00,0.00,VWS V14.00,2013-10-29 01:45:00,
2013-10-28 21:50:00,74.3,66.6,30.09,East,81,0.0,0.0,77,0.00,,FEW035CU,0.00,0.00,VWS V14.00,2013-10-29 01:50:00,
2013-10-28 21:55:00,74.0,66.3,30.09,East,81,0.0,0.0,77,0.00,,FEW035CU,0.00,0.00,VWS V14.00,2013-10-29 01:55:00,
2013-10-28 22:00:00,73.8,66.9,30.09,East,81,0.0,0.0,79,0.00,,FEW035CU,0.00,0.00,VWS V14.00,2013-10-29 02:00:00,
2013-10-28 22:05:00,73.5,66.6,30.09,East,81,0.0,0.0,79,0.00,,FEW035CU,0.00,0.00,VWS V14.00,2013-10-29 02:05:00,
2013-10-28 22:10:00,73.3,66.8,30.10,East,81,0.0,0.0,80,0.00,,FEW035CU,0.00,0.00,VWS V14.00,2013-10-29 02:10:00,
2013-10-28 22:15:00,73.1,66.9,30.09,East,81,0.0,0.0,81,0.00,,FEW035CU,0.00,0.00,VWS V14.00,2013-10-29 02:15:00,
2013-10-28 22:20:00,73.0,66.8,30.09,East,81,0.0,0.0,81,0.00,,FEW035CU,0.00,0.00,VWS V14.00,2013-10-29 02:20:00,
2013-10-28 22:25:00,72.7,66.5,30.09,East,81,0.0,0.0,81,0.00,,FEW035CU,0.00,0.00,VWS V14.00,2013-10-29 02:25:00,
2013-10-28 22:30:00,72.6,66.4,30.09,East,81,0.0,0.0,81,0.00,,FEW035CU,0.00,0.00,VWS V14.00,2013-10-29 02:30:00,
2013-10-28 22:35:00,72.4,66.6,30.09,East,81,0.0,0.0,82,0.00,,FEW035CU,0.00,0.00,VWS V14.00,2013-10-29 02:35:00,
2013-10-28 22:40:00,72.4,66.6,30.09,East,81,0.0,0.0,82,0.00,,FEW035CU,0.00,0.00,VWS V14.00,2013-10-29 02:40:00,
2013-10-28 22:45:00,72.3,66.5,30.09,East,81,0.0,0.0,82,0.00,,FEW035CU,0.00,0.00,VWS V14.00,2013-10-29 02:45:00,
2013-10-28 22:50:00,72.2,66.8,30.09,East,81,0.0,0.0,83,0.00,,FEW035CU,0.00,0.00,VWS V14.00,2013-10-29 02:50:00,
2013-10-28 22:55:00,72.1,66.7,30.09,East,81,0.0,0.0,83,0.00,,FEW035CU,0.00,0.00,VWS V14.00,2013-10-29 02:55:00,
2013-10-28 23:00:00,71.9,66.5,30.09,East,81,0.0,0.0,83,0.00,,FEW035CU,0.00,0.00,VWS V14.00,2013-10-29 03:00:00,
2013-10-28 23:05:00,71.8,66.4,30.09,East,81,0.0,0.0,83,0.00,,FEW035CU,0.00,0.00,VWS V14.00,2013-10-29 03:05:00,
2013-10-28 23:10:00,71.7,66.3,30.09,East,81,0.0,0.0,83,0.00,,FEW035CU,0.00,0.00,VWS V14.00,2013-10-29 03:10:00,
2013-10-28 23:15:00,71.6,66.5,30.09,East,81,0.0,0.0,84,0.00,,FEW035CU,0.00,0.00,VWS V14.00,2013-10-29 03:15:00,
2013-10-28 23:20:00,71.5,66.4,30.09,East,81,0.0,0.0,84,0.00,,FEW035CU,0.00,0.00,VWS V14.00,2013-10-29 03:20:00,
2013-10-28 23:25:00,71.3,66.2,30.09,East,81,0.0,0.0,84,0.00,,FEW035CU,0.00,0.00,VWS V14.00,2013-10-29 03:25:00,
2013-10-28 23:30:00,71.2,66.1,30.09,East,81,0.0,0.0,84,0.00,,FEW035CU,0.00,0.00,VWS V14.00,2013-10-29 03:30:00,
2013-10-28 23:35:00,71.2,66.1,30.09,East,81,0.0,0.0,84,0.00,,FEW035CU,0.00,0.00,VWS V14.00,2013-10-29 03:35:00,
2013-10-28 23:41:00,71.1,66.0,30.09,East,81,0.0,0.0,84,0.00,,FEW035CU,0.00,0.00,VWS V14.00,2013-10-29 03:41:00,
2013-10-28 23:46:00,71.0,66.3,30.09,East,81,0.0,0.0,85,0.00,,FEW035CU,0.00,0.00,VWS V14.00,2013-10-29 03:46:00,
2013-10-28 23:51:00,71.0,66.3,30.08,East,81,0.0,0.0,85,0.00,,FEW035CU,0.00,0.00,VWS V14.00,2013-10-29 03:51:00,
2013-10-28 23:56:00,71.0,66.3,30.08,East,81,0.0,0.0,85,0.00,,FEW035CU,0.00,0.00,VWS V14.00,2013-10-29 03:56:00,